sensor_id;sensor_type;location;lat;lon;timestamp;P1;durP1;ratioP1;P2;durP2;ratioP2
67278;SDS011;54193;53.746;10.058;2023-09-19T00:00:39;4.93;;;1.55;;
67278;SDS011;54193;53.746;10.058;2023-09-19T00:03:26;3.87;;;1.80;;
67278;SDS011;54193;53.746;10.058;2023-09-19T00:06:13;3.38;;;1.60;;
67278;SDS011;54193;53.746;10.058;2023-09-19T00:09:01;3.97;;;1.70;;
67278;SDS011;54193;53.746;10.058;2023-09-19T00:11:49;5.70;;;2.17;;
67278;SDS011;54193;53.746;10.058;2023-09-19T00:14:35;3.72;;;1.67;;
67278;SDS011;54193;53.746;10.058;2023-09-19T00:17:23;4.95;;;1.98;;
67278;SDS011;54193;53.746;10.058;2023-09-19T00:20:10;4.25;;;2.05;;
67278;SDS011;54193;53.746;10.058;2023-09-19T00:22:58;4.65;;;2.05;;
67278;SDS011;54193;53.746;10.058;2023-09-19T00:25:44;3.90;;;2.03;;
67278;SDS011;54193;53.746;10.058;2023-09-19T00:28:30;5.65;;;2.10;;
67278;SDS011;54193;53.746;10.058;2023-09-19T00:31:17;7.13;;;2.60;;
67278;SDS011;54193;53.746;10.058;2023-09-19T00:34:02;6.40;;;2.60;;
67278;SDS011;54193;53.746;10.058;2023-09-19T00:36:51;4.85;;;2.33;;
67278;SDS011;54193;53.746;10.058;2023-09-19T00:39:38;4.13;;;2.43;;
67278;SDS011;54193;53.746;10.058;2023-09-19T00:42:24;6.00;;;2.33;;
67278;SDS011;54193;53.746;10.058;2023-09-19T00:45:12;5.55;;;2.40;;
67278;SDS011;54193;53.746;10.058;2023-09-19T00:47:59;5.45;;;2.40;;
67278;SDS011;54193;53.746;10.058;2023-09-19T00:50:48;5.32;;;2.55;;
67278;SDS011;54193;53.746;10.058;2023-09-19T00:53:34;6.20;;;2.95;;
67278;SDS011;54193;53.746;10.058;2023-09-19T00:56:20;5.78;;;2.40;;
67278;SDS011;54193;53.746;10.058;2023-09-19T00:59:06;7.00;;;3.13;;
67278;SDS011;54193;53.746;10.058;2023-09-19T01:01:52;7.03;;;3.00;;
67278;SDS011;54193;53.746;10.058;2023-09-19T01:04:40;6.93;;;3.10;;
67278;SDS011;54193;53.746;10.058;2023-09-19T01:07:29;6.43;;;3.03;;
67278;SDS011;54193;53.746;10.058;2023-09-19T01:10:16;5.47;;;2.95;;
67278;SDS011;54193;53.746;10.058;2023-09-19T01:13:17;4.82;;;2.65;;
67278;SDS011;54193;53.746;10.058;2023-09-19T01:16:26;6.13;;;2.88;;
67278;SDS011;54193;53.746;10.058;2023-09-19T01:22:53;8.85;;;3.40;;
67278;SDS011;54193;53.746;10.058;2023-09-19T01:25:56;5.55;;;2.80;;
67278;SDS011;54193;53.746;10.058;2023-09-19T01:32:17;7.68;;;3.40;;
67278;SDS011;54193;53.746;10.058;2023-09-19T01:35:07;8.95;;;3.58;;
67278;SDS011;54193;53.746;10.058;2023-09-19T01:37:57;8.07;;;3.87;;
67278;SDS011;54193;53.746;10.058;2023-09-19T01:40:44;8.05;;;3.72;;
67278;SDS011;54193;53.746;10.058;2023-09-19T01:43:38;5.75;;;2.38;;
67278;SDS011;54193;53.746;10.058;2023-09-19T01:46:30;7.57;;;3.13;;
67278;SDS011;54193;53.746;10.058;2023-09-19T01:49:41;9.32;;;3.33;;
67278;SDS011;54193;53.746;10.058;2023-09-19T01:52:31;7.93;;;3.55;;
67278;SDS011;54193;53.746;10.058;2023-09-19T01:55:24;8.32;;;3.45;;
67278;SDS011;54193;53.746;10.058;2023-09-19T02:01:10;8.38;;;3.60;;
67278;SDS011;54193;53.746;10.058;2023-09-19T02:04:00;6.80;;;3.35;;
67278;SDS011;54193;53.746;10.058;2023-09-19T02:06:46;7.20;;;2.77;;
67278;SDS011;54193;53.746;10.058;2023-09-19T02:09:34;7.80;;;3.58;;
67278;SDS011;54193;53.746;10.058;2023-09-19T02:12:24;7.18;;;3.53;;
67278;SDS011;54193;53.746;10.058;2023-09-19T02:15:09;6.93;;;3.40;;
67278;SDS011;54193;53.746;10.058;2023-09-19T02:17:55;7.53;;;3.25;;
67278;SDS011;54193;53.746;10.058;2023-09-19T02:20:42;5.88;;;3.10;;
67278;SDS011;54193;53.746;10.058;2023-09-19T02:23:28;10.18;;;2.92;;
67278;SDS011;54193;53.746;10.058;2023-09-19T02:26:15;6.50;;;3.00;;
67278;SDS011;54193;53.746;10.058;2023-09-19T02:29:01;5.55;;;2.63;;
67278;SDS011;54193;53.746;10.058;2023-09-19T02:31:50;7.22;;;2.38;;
67278;SDS011;54193;53.746;10.058;2023-09-19T02:34:35;8.17;;;2.70;;
67278;SDS011;54193;53.746;10.058;2023-09-19T02:37:21;6.13;;;2.55;;
67278;SDS011;54193;53.746;10.058;2023-09-19T02:40:07;6.50;;;2.40;;
67278;SDS011;54193;53.746;10.058;2023-09-19T02:43:03;6.35;;;2.65;;
67278;SDS011;54193;53.746;10.058;2023-09-19T02:45:50;6.72;;;1.83;;
67278;SDS011;54193;53.746;10.058;2023-09-19T02:48:36;4.63;;;2.33;;
67278;SDS011;54193;53.746;10.058;2023-09-19T02:51:21;8.25;;;2.60;;
67278;SDS011;54193;53.746;10.058;2023-09-19T02:54:07;7.00;;;2.43;;
67278;SDS011;54193;53.746;10.058;2023-09-19T02:56:53;5.25;;;2.40;;
67278;SDS011;54193;53.746;10.058;2023-09-19T02:59:39;6.63;;;2.40;;
67278;SDS011;54193;53.746;10.058;2023-09-19T03:02:27;8.07;;;2.33;;
67278;SDS011;54193;53.746;10.058;2023-09-19T03:05:13;7.35;;;2.80;;
67278;SDS011;54193;53.746;10.058;2023-09-19T03:07:59;6.97;;;2.78;;
67278;SDS011;54193;53.746;10.058;2023-09-19T03:10:46;8.18;;;2.60;;
67278;SDS011;54193;53.746;10.058;2023-09-19T03:13:33;5.88;;;2.15;;
67278;SDS011;54193;53.746;10.058;2023-09-19T03:16:18;7.20;;;2.50;;
67278;SDS011;54193;53.746;10.058;2023-09-19T03:19:07;5.05;;;2.30;;
67278;SDS011;54193;53.746;10.058;2023-09-19T03:21:52;7.70;;;3.00;;
67278;SDS011;54193;53.746;10.058;2023-09-19T03:24:38;6.05;;;2.70;;
67278;SDS011;54193;53.746;10.058;2023-09-19T03:27:24;6.03;;;2.55;;
67278;SDS011;54193;53.746;10.058;2023-09-19T03:30:10;5.63;;;2.37;;
67278;SDS011;54193;53.746;10.058;2023-09-19T03:32:58;6.13;;;2.33;;
67278;SDS011;54193;53.746;10.058;2023-09-19T03:35:45;6.35;;;2.55;;
67278;SDS011;54193;53.746;10.058;2023-09-19T03:38:37;6.63;;;2.35;;
67278;SDS011;54193;53.746;10.058;2023-09-19T03:41:23;7.25;;;2.20;;
67278;SDS011;54193;53.746;10.058;2023-09-19T03:44:09;6.57;;;2.38;;
67278;SDS011;54193;53.746;10.058;2023-09-19T03:46:54;5.85;;;2.05;;
67278;SDS011;54193;53.746;10.058;2023-09-19T03:49:41;5.13;;;2.07;;
67278;SDS011;54193;53.746;10.058;2023-09-19T03:52:27;4.32;;;1.83;;
67278;SDS011;54193;53.746;10.058;2023-09-19T03:55:13;5.65;;;2.00;;
67278;SDS011;54193;53.746;10.058;2023-09-19T03:57:58;4.83;;;2.10;;
67278;SDS011;54193;53.746;10.058;2023-09-19T04:00:44;4.60;;;1.80;;
67278;SDS011;54193;53.746;10.058;2023-09-19T04:03:29;5.90;;;2.53;;
67278;SDS011;54193;53.746;10.058;2023-09-19T04:06:20;6.10;;;2.33;;
67278;SDS011;54193;53.746;10.058;2023-09-19T04:09:06;6.85;;;2.03;;
67278;SDS011;54193;53.746;10.058;2023-09-19T04:11:52;5.18;;;1.60;;
67278;SDS011;54193;53.746;10.058;2023-09-19T04:14:38;5.35;;;1.42;;
67278;SDS011;54193;53.746;10.058;2023-09-19T04:17:24;6.33;;;1.90;;
67278;SDS011;54193;53.746;10.058;2023-09-19T04:20:09;5.20;;;1.77;;
67278;SDS011;54193;53.746;10.058;2023-09-19T04:22:57;5.25;;;1.90;;
67278;SDS011;54193;53.746;10.058;2023-09-19T04:25:45;5.73;;;1.90;;
67278;SDS011;54193;53.746;10.058;2023-09-19T04:28:31;5.35;;;2.30;;
67278;SDS011;54193;53.746;10.058;2023-09-19T04:31:17;6.82;;;1.95;;
67278;SDS011;54193;53.746;10.058;2023-09-19T04:34:04;4.97;;;1.50;;
67278;SDS011;54193;53.746;10.058;2023-09-19T04:36:50;5.30;;;1.92;;
67278;SDS011;54193;53.746;10.058;2023-09-19T04:39:36;5.32;;;1.75;;
67278;SDS011;54193;53.746;10.058;2023-09-19T04:42:22;5.35;;;1.80;;
67278;SDS011;54193;53.746;10.058;2023-09-19T04:45:10;4.73;;;1.57;;
67278;SDS011;54193;53.746;10.058;2023-09-19T04:47:56;4.88;;;1.70;;
67278;SDS011;54193;53.746;10.058;2023-09-19T04:50:41;5.78;;;1.67;;
67278;SDS011;54193;53.746;10.058;2023-09-19T04:53:28;6.57;;;2.00;;
67278;SDS011;54193;53.746;10.058;2023-09-19T04:56:14;7.72;;;1.88;;
67278;SDS011;54193;53.746;10.058;2023-09-19T04:59:00;7.10;;;2.00;;
67278;SDS011;54193;53.746;10.058;2023-09-19T05:01:46;13.00;;;3.50;;
67278;SDS011;54193;53.746;10.058;2023-09-19T05:04:32;8.23;;;2.60;;
67278;SDS011;54193;53.746;10.058;2023-09-19T05:07:17;7.88;;;2.42;;
67278;SDS011;54193;53.746;10.058;2023-09-19T05:10:03;7.40;;;1.75;;
67278;SDS011;54193;53.746;10.058;2023-09-19T05:12:53;4.67;;;1.80;;
67278;SDS011;54193;53.746;10.058;2023-09-19T05:15:39;7.00;;;1.77;;
67278;SDS011;54193;53.746;10.058;2023-09-19T05:18:25;6.50;;;1.90;;
67278;SDS011;54193;53.746;10.058;2023-09-19T05:21:11;6.73;;;1.50;;
67278;SDS011;54193;53.746;10.058;2023-09-19T05:23:57;5.60;;;1.70;;
67278;SDS011;54193;53.746;10.058;2023-09-19T05:26:43;8.70;;;1.67;;
67278;SDS011;54193;53.746;10.058;2023-09-19T05:29:29;6.95;;;1.80;;
67278;SDS011;54193;53.746;10.058;2023-09-19T05:32:15;6.05;;;1.60;;
67278;SDS011;54193;53.746;10.058;2023-09-19T05:35:01;4.50;;;1.40;;
67278;SDS011;54193;53.746;10.058;2023-09-19T05:37:47;4.80;;;1.50;;
67278;SDS011;54193;53.746;10.058;2023-09-19T05:40:36;10.33;;;1.93;;
67278;SDS011;54193;53.746;10.058;2023-09-19T05:43:26;6.15;;;1.80;;
67278;SDS011;54193;53.746;10.058;2023-09-19T05:46:11;6.75;;;1.60;;
67278;SDS011;54193;53.746;10.058;2023-09-19T05:48:57;7.37;;;1.60;;
67278;SDS011;54193;53.746;10.058;2023-09-19T05:51:43;5.97;;;1.70;;
67278;SDS011;54193;53.746;10.058;2023-09-19T05:54:29;4.55;;;1.25;;
67278;SDS011;54193;53.746;10.058;2023-09-19T05:57:14;5.20;;;1.50;;
67278;SDS011;54193;53.746;10.058;2023-09-19T06:00:00;9.52;;;1.83;;
67278;SDS011;54193;53.746;10.058;2023-09-19T06:02:48;6.30;;;1.63;;
67278;SDS011;54193;53.746;10.058;2023-09-19T06:05:35;5.30;;;1.83;;
67278;SDS011;54193;53.746;10.058;2023-09-19T06:08:21;6.43;;;1.70;;
67278;SDS011;54193;53.746;10.058;2023-09-19T06:11:07;6.72;;;1.60;;
67278;SDS011;54193;53.746;10.058;2023-09-19T06:13:52;7.35;;;1.73;;
67278;SDS011;54193;53.746;10.058;2023-09-19T06:16:38;6.57;;;1.70;;
67278;SDS011;54193;53.746;10.058;2023-09-19T06:19:24;5.18;;;1.55;;
67278;SDS011;54193;53.746;10.058;2023-09-19T06:22:11;6.80;;;1.60;;
67278;SDS011;54193;53.746;10.058;2023-09-19T06:24:57;7.35;;;1.63;;
67278;SDS011;54193;53.746;10.058;2023-09-19T06:27:42;6.72;;;1.63;;
67278;SDS011;54193;53.746;10.058;2023-09-19T06:30:29;5.05;;;1.40;;
67278;SDS011;54193;53.746;10.058;2023-09-19T06:33:16;8.55;;;1.80;;
67278;SDS011;54193;53.746;10.058;2023-09-19T06:36:02;6.63;;;1.77;;
67278;SDS011;54193;53.746;10.058;2023-09-19T06:38:49;6.28;;;2.13;;
67278;SDS011;54193;53.746;10.058;2023-09-19T06:41:37;5.82;;;2.00;;
67278;SDS011;54193;53.746;10.058;2023-09-19T06:44:24;4.53;;;1.37;;
67278;SDS011;54193;53.746;10.058;2023-09-19T06:47:10;5.23;;;1.80;;
67278;SDS011;54193;53.746;10.058;2023-09-19T06:49:56;7.80;;;2.10;;
67278;SDS011;54193;53.746;10.058;2023-09-19T06:52:41;6.45;;;1.77;;
67278;SDS011;54193;53.746;10.058;2023-09-19T06:55:27;6.00;;;1.85;;
67278;SDS011;54193;53.746;10.058;2023-09-19T06:58:13;6.70;;;1.63;;
67278;SDS011;54193;53.746;10.058;2023-09-19T07:00:58;6.88;;;1.80;;
67278;SDS011;54193;53.746;10.058;2023-09-19T07:03:44;8.77;;;1.60;;
67278;SDS011;54193;53.746;10.058;2023-09-19T07:06:30;5.87;;;1.60;;
67278;SDS011;54193;53.746;10.058;2023-09-19T07:09:16;8.93;;;1.90;;
67278;SDS011;54193;53.746;10.058;2023-09-19T07:12:02;6.63;;;1.52;;
67278;SDS011;54193;53.746;10.058;2023-09-19T07:14:48;5.32;;;1.73;;
67278;SDS011;54193;53.746;10.058;2023-09-19T07:17:33;5.85;;;2.00;;
67278;SDS011;54193;53.746;10.058;2023-09-19T07:20:20;8.68;;;2.03;;
67278;SDS011;54193;53.746;10.058;2023-09-19T07:23:05;5.75;;;1.70;;
67278;SDS011;54193;53.746;10.058;2023-09-19T07:25:51;6.17;;;1.90;;
67278;SDS011;54193;53.746;10.058;2023-09-19T07:28:37;7.35;;;2.10;;
67278;SDS011;54193;53.746;10.058;2023-09-19T07:31:23;7.55;;;1.65;;
67278;SDS011;54193;53.746;10.058;2023-09-19T07:34:08;6.90;;;2.07;;
67278;SDS011;54193;53.746;10.058;2023-09-19T07:36:55;7.85;;;2.40;;
67278;SDS011;54193;53.746;10.058;2023-09-19T07:39:42;7.10;;;1.77;;
67278;SDS011;54193;53.746;10.058;2023-09-19T07:42:30;6.07;;;1.63;;
67278;SDS011;54193;53.746;10.058;2023-09-19T07:45:15;9.27;;;2.28;;
67278;SDS011;54193;53.746;10.058;2023-09-19T07:48:02;6.65;;;2.20;;
67278;SDS011;54193;53.746;10.058;2023-09-19T07:50:51;7.80;;;1.73;;
67278;SDS011;54193;53.746;10.058;2023-09-19T07:53:37;8.60;;;1.50;;
67278;SDS011;54193;53.746;10.058;2023-09-19T07:56:22;8.52;;;1.92;;
67278;SDS011;54193;53.746;10.058;2023-09-19T07:59:08;7.07;;;2.05;;
67278;SDS011;54193;53.746;10.058;2023-09-19T08:01:56;9.87;;;2.50;;
67278;SDS011;54193;53.746;10.058;2023-09-19T08:04:43;8.07;;;2.00;;
67278;SDS011;54193;53.746;10.058;2023-09-19T08:07:28;7.88;;;1.92;;
67278;SDS011;54193;53.746;10.058;2023-09-19T08:10:14;8.75;;;2.15;;
67278;SDS011;54193;53.746;10.058;2023-09-19T08:13:01;6.15;;;2.10;;
67278;SDS011;54193;53.746;10.058;2023-09-19T08:15:47;7.70;;;1.95;;
67278;SDS011;54193;53.746;10.058;2023-09-19T08:18:33;6.25;;;1.77;;
67278;SDS011;54193;53.746;10.058;2023-09-19T08:21:19;7.03;;;2.13;;
67278;SDS011;54193;53.746;10.058;2023-09-19T08:24:04;11.13;;;2.55;;
67278;SDS011;54193;53.746;10.058;2023-09-19T08:26:51;6.40;;;2.10;;
67278;SDS011;54193;53.746;10.058;2023-09-19T08:29:36;7.07;;;2.33;;
67278;SDS011;54193;53.746;10.058;2023-09-19T08:32:22;3.25;;;1.52;;
67278;SDS011;54193;53.746;10.058;2023-09-19T08:35:10;5.72;;;1.83;;
67278;SDS011;54193;53.746;10.058;2023-09-19T08:37:57;6.25;;;2.00;;
67278;SDS011;54193;53.746;10.058;2023-09-19T08:40:42;5.93;;;2.10;;
67278;SDS011;54193;53.746;10.058;2023-09-19T08:43:29;8.80;;;2.20;;
67278;SDS011;54193;53.746;10.058;2023-09-19T08:46:15;7.43;;;2.17;;
67278;SDS011;54193;53.746;10.058;2023-09-19T08:49:05;6.30;;;1.90;;
67278;SDS011;54193;53.746;10.058;2023-09-19T08:52:01;5.88;;;2.20;;
67278;SDS011;54193;53.746;10.058;2023-09-19T08:55:11;7.40;;;2.10;;
67278;SDS011;54193;53.746;10.058;2023-09-19T08:58:03;6.03;;;2.33;;
67278;SDS011;54193;53.746;10.058;2023-09-19T09:00:52;7.85;;;1.88;;
67278;SDS011;54193;53.746;10.058;2023-09-19T09:03:39;9.93;;;2.30;;
67278;SDS011;54193;53.746;10.058;2023-09-19T09:06:29;8.45;;;2.20;;
67278;SDS011;54193;53.746;10.058;2023-09-19T09:09:15;8.23;;;1.98;;
67278;SDS011;54193;53.746;10.058;2023-09-19T09:12:00;9.77;;;2.78;;
67278;SDS011;54193;53.746;10.058;2023-09-19T09:14:48;7.03;;;2.40;;
67278;SDS011;54193;53.746;10.058;2023-09-19T09:17:35;7.40;;;2.17;;
67278;SDS011;54193;53.746;10.058;2023-09-19T09:20:20;8.85;;;2.65;;
67278;SDS011;54193;53.746;10.058;2023-09-19T09:23:07;9.57;;;2.07;;
67278;SDS011;54193;53.746;10.058;2023-09-19T09:25:53;9.02;;;1.92;;
67278;SDS011;54193;53.746;10.058;2023-09-19T09:28:45;8.10;;;2.03;;
67278;SDS011;54193;53.746;10.058;2023-09-19T09:31:33;13.57;;;2.33;;
67278;SDS011;54193;53.746;10.058;2023-09-19T09:34:19;8.32;;;1.80;;
67278;SDS011;54193;53.746;10.058;2023-09-19T09:37:06;8.35;;;1.90;;
67278;SDS011;54193;53.746;10.058;2023-09-19T09:39:53;8.45;;;1.80;;
67278;SDS011;54193;53.746;10.058;2023-09-19T09:42:43;6.82;;;1.90;;
67278;SDS011;54193;53.746;10.058;2023-09-19T09:45:32;4.78;;;1.83;;
67278;SDS011;54193;53.746;10.058;2023-09-19T09:48:24;6.68;;;2.10;;
67278;SDS011;54193;53.746;10.058;2023-09-19T09:51:29;9.57;;;1.93;;
67278;SDS011;54193;53.746;10.058;2023-09-19T09:54:16;5.30;;;1.50;;
67278;SDS011;54193;53.746;10.058;2023-09-19T09:57:06;5.45;;;1.63;;
67278;SDS011;54193;53.746;10.058;2023-09-19T10:00:05;8.50;;;1.98;;
67278;SDS011;54193;53.746;10.058;2023-09-19T10:02:57;4.75;;;1.60;;
67278;SDS011;54193;53.746;10.058;2023-09-19T10:05:44;5.22;;;1.80;;
67278;SDS011;54193;53.746;10.058;2023-09-19T10:08:30;6.23;;;1.70;;
67278;SDS011;54193;53.746;10.058;2023-09-19T10:11:16;9.57;;;1.80;;
67278;SDS011;54193;53.746;10.058;2023-09-19T10:14:03;6.47;;;1.77;;
67278;SDS011;54193;53.746;10.058;2023-09-19T10:16:51;5.30;;;1.40;;
67278;SDS011;54193;53.746;10.058;2023-09-19T10:19:42;6.38;;;1.35;;
67278;SDS011;54193;53.746;10.058;2023-09-19T10:22:38;6.90;;;1.70;;
67278;SDS011;54193;53.746;10.058;2023-09-19T10:25:27;8.65;;;1.75;;
67278;SDS011;54193;53.746;10.058;2023-09-19T10:28:16;7.03;;;1.52;;
67278;SDS011;54193;53.746;10.058;2023-09-19T10:31:06;6.03;;;1.60;;
67278;SDS011;54193;53.746;10.058;2023-09-19T10:33:55;8.25;;;1.48;;
67278;SDS011;54193;53.746;10.058;2023-09-19T10:36:44;5.13;;;1.30;;
67278;SDS011;54193;53.746;10.058;2023-09-19T10:39:32;6.15;;;1.58;;
67278;SDS011;54193;53.746;10.058;2023-09-19T10:42:19;8.68;;;1.50;;
67278;SDS011;54193;53.746;10.058;2023-09-19T10:45:05;8.87;;;1.30;;
67278;SDS011;54193;53.746;10.058;2023-09-19T10:47:58;4.72;;;1.08;;
67278;SDS011;54193;53.746;10.058;2023-09-19T10:50:50;6.22;;;1.60;;
67278;SDS011;54193;53.746;10.058;2023-09-19T10:53:59;8.10;;;1.73;;
67278;SDS011;54193;53.746;10.058;2023-09-19T10:56:50;9.55;;;1.95;;
67278;SDS011;54193;53.746;10.058;2023-09-19T10:59:39;7.47;;;1.80;;
67278;SDS011;54193;53.746;10.058;2023-09-19T11:06:12;7.97;;;2.30;;
67278;SDS011;54193;53.746;10.058;2023-09-19T11:09:02;7.55;;;2.35;;
67278;SDS011;54193;53.746;10.058;2023-09-19T11:12:00;7.03;;;2.17;;
67278;SDS011;54193;53.746;10.058;2023-09-19T11:14:47;9.93;;;2.43;;
67278;SDS011;54193;53.746;10.058;2023-09-19T11:17:36;6.68;;;2.20;;
67278;SDS011;54193;53.746;10.058;2023-09-19T11:20:32;7.75;;;1.95;;
67278;SDS011;54193;53.746;10.058;2023-09-19T11:23:26;6.75;;;2.35;;
67278;SDS011;54193;53.746;10.058;2023-09-19T11:26:32;4.95;;;1.58;;
67278;SDS011;54193;53.746;10.058;2023-09-19T11:29:39;5.63;;;2.13;;
67278;SDS011;54193;53.746;10.058;2023-09-19T11:33:15;7.60;;;2.17;;
67278;SDS011;54193;53.746;10.058;2023-09-19T11:36:03;6.63;;;2.13;;
67278;SDS011;54193;53.746;10.058;2023-09-19T11:41:37;9.80;;;2.20;;
67278;SDS011;54193;53.746;10.058;2023-09-19T11:47:16;6.55;;;2.20;;
67278;SDS011;54193;53.746;10.058;2023-09-19T11:50:04;9.00;;;2.33;;
67278;SDS011;54193;53.746;10.058;2023-09-19T11:52:53;8.35;;;1.92;;
67278;SDS011;54193;53.746;10.058;2023-09-19T11:55:40;6.15;;;1.65;;
67278;SDS011;54193;53.746;10.058;2023-09-19T11:58:28;6.03;;;2.00;;
67278;SDS011;54193;53.746;10.058;2023-09-19T12:01:21;5.80;;;2.20;;
67278;SDS011;54193;53.746;10.058;2023-09-19T12:04:14;6.35;;;2.10;;
67278;SDS011;54193;53.746;10.058;2023-09-19T12:07:00;7.57;;;1.95;;
67278;SDS011;54193;53.746;10.058;2023-09-19T12:09:46;6.07;;;2.10;;
67278;SDS011;54193;53.746;10.058;2023-09-19T12:12:33;7.53;;;2.08;;
67278;SDS011;54193;53.746;10.058;2023-09-19T12:15:22;6.40;;;1.85;;
67278;SDS011;54193;53.746;10.058;2023-09-19T12:18:29;9.15;;;2.22;;
67278;SDS011;54193;53.746;10.058;2023-09-19T12:21:21;6.45;;;2.10;;
67278;SDS011;54193;53.746;10.058;2023-09-19T12:24:11;6.53;;;2.05;;
67278;SDS011;54193;53.746;10.058;2023-09-19T12:27:02;7.68;;;1.73;;
67278;SDS011;54193;53.746;10.058;2023-09-19T12:29:52;8.37;;;1.60;;
67278;SDS011;54193;53.746;10.058;2023-09-19T12:32:44;7.18;;;2.10;;
67278;SDS011;54193;53.746;10.058;2023-09-19T12:35:32;6.50;;;1.73;;
67278;SDS011;54193;53.746;10.058;2023-09-19T12:38:23;6.10;;;1.73;;
67278;SDS011;54193;53.746;10.058;2023-09-19T12:41:13;5.70;;;1.58;;
67278;SDS011;54193;53.746;10.058;2023-09-19T12:43:59;9.35;;;2.35;;
67278;SDS011;54193;53.746;10.058;2023-09-19T12:46:45;8.15;;;2.22;;
67278;SDS011;54193;53.746;10.058;2023-09-19T12:49:31;9.25;;;2.30;;
67278;SDS011;54193;53.746;10.058;2023-09-19T12:52:16;9.77;;;2.30;;
67278;SDS011;54193;53.746;10.058;2023-09-19T12:55:05;6.55;;;2.38;;
67278;SDS011;54193;53.746;10.058;2023-09-19T13:01:13;6.95;;;2.40;;
67278;SDS011;54193;53.746;10.058;2023-09-19T13:04:15;8.55;;;1.88;;
67278;SDS011;54193;53.746;10.058;2023-09-19T13:07:39;10.27;;;2.57;;
67278;SDS011;54193;53.746;10.058;2023-09-19T13:10:29;9.07;;;2.03;;
67278;SDS011;54193;53.746;10.058;2023-09-19T13:13:23;6.43;;;2.38;;
67278;SDS011;54193;53.746;10.058;2023-09-19T13:16:13;7.05;;;2.55;;
67278;SDS011;54193;53.746;10.058;2023-09-19T13:19:08;7.93;;;2.10;;
67278;SDS011;54193;53.746;10.058;2023-09-19T13:21:54;7.60;;;2.40;;
67278;SDS011;54193;53.746;10.058;2023-09-19T13:24:41;8.00;;;2.28;;
67278;SDS011;54193;53.746;10.058;2023-09-19T13:27:27;7.27;;;2.20;;
67278;SDS011;54193;53.746;10.058;2023-09-19T13:30:14;5.53;;;1.85;;
67278;SDS011;54193;53.746;10.058;2023-09-19T13:33:07;5.07;;;2.00;;
67278;SDS011;54193;53.746;10.058;2023-09-19T13:35:55;4.10;;;1.87;;
67278;SDS011;54193;53.746;10.058;2023-09-19T13:38:42;4.78;;;1.80;;
67278;SDS011;54193;53.746;10.058;2023-09-19T13:41:34;6.25;;;1.92;;
67278;SDS011;54193;53.746;10.058;2023-09-19T13:44:21;4.45;;;2.03;;
67278;SDS011;54193;53.746;10.058;2023-09-19T13:47:08;8.70;;;1.83;;
67278;SDS011;54193;53.746;10.058;2023-09-19T13:49:55;8.18;;;1.90;;
67278;SDS011;54193;53.746;10.058;2023-09-19T13:52:41;7.03;;;1.88;;
67278;SDS011;54193;53.746;10.058;2023-09-19T13:55:26;8.43;;;1.80;;
67278;SDS011;54193;53.746;10.058;2023-09-19T13:58:12;6.35;;;1.80;;
67278;SDS011;54193;53.746;10.058;2023-09-19T14:00:58;4.70;;;1.60;;
67278;SDS011;54193;53.746;10.058;2023-09-19T14:03:43;6.20;;;1.87;;
67278;SDS011;54193;53.746;10.058;2023-09-19T14:06:32;7.68;;;1.92;;
67278;SDS011;54193;53.746;10.058;2023-09-19T14:09:18;5.45;;;1.27;;
67278;SDS011;54193;53.746;10.058;2023-09-19T14:12:05;5.78;;;1.77;;
67278;SDS011;54193;53.746;10.058;2023-09-19T14:14:51;6.05;;;1.70;;
67278;SDS011;54193;53.746;10.058;2023-09-19T14:17:37;7.60;;;1.92;;
67278;SDS011;54193;53.746;10.058;2023-09-19T14:20:23;7.72;;;1.60;;
67278;SDS011;54193;53.746;10.058;2023-09-19T14:23:09;6.50;;;1.77;;
67278;SDS011;54193;53.746;10.058;2023-09-19T14:25:55;6.72;;;2.03;;
67278;SDS011;54193;53.746;10.058;2023-09-19T14:28:40;5.07;;;1.50;;
67278;SDS011;54193;53.746;10.058;2023-09-19T14:31:26;6.63;;;1.90;;
67278;SDS011;54193;53.746;10.058;2023-09-19T14:34:13;5.88;;;1.60;;
67278;SDS011;54193;53.746;10.058;2023-09-19T14:37:00;7.50;;;1.70;;
67278;SDS011;54193;53.746;10.058;2023-09-19T14:39:45;5.75;;;1.60;;
67278;SDS011;54193;53.746;10.058;2023-09-19T14:42:31;6.07;;;1.50;;
67278;SDS011;54193;53.746;10.058;2023-09-19T14:45:17;7.32;;;1.77;;
67278;SDS011;54193;53.746;10.058;2023-09-19T14:48:03;6.72;;;1.50;;
67278;SDS011;54193;53.746;10.058;2023-09-19T14:50:50;5.33;;;2.00;;
67278;SDS011;54193;53.746;10.058;2023-09-19T14:53:37;4.70;;;1.42;;
67278;SDS011;54193;53.746;10.058;2023-09-19T14:56:23;4.45;;;1.50;;
67278;SDS011;54193;53.746;10.058;2023-09-19T14:59:10;6.23;;;1.67;;
67278;SDS011;54193;53.746;10.058;2023-09-19T15:01:56;5.82;;;1.75;;
67278;SDS011;54193;53.746;10.058;2023-09-19T15:04:42;5.80;;;1.60;;
67278;SDS011;54193;53.746;10.058;2023-09-19T15:07:32;7.80;;;1.67;;
67278;SDS011;54193;53.746;10.058;2023-09-19T15:10:17;11.10;;;1.90;;
67278;SDS011;54193;53.746;10.058;2023-09-19T15:13:03;8.00;;;1.70;;
67278;SDS011;54193;53.746;10.058;2023-09-19T15:15:49;9.50;;;2.00;;
67278;SDS011;54193;53.746;10.058;2023-09-19T15:18:35;6.20;;;1.23;;
67278;SDS011;54193;53.746;10.058;2023-09-19T15:21:22;6.18;;;2.10;;
67278;SDS011;54193;53.746;10.058;2023-09-19T15:24:09;4.75;;;1.55;;
67278;SDS011;54193;53.746;10.058;2023-09-19T15:26:55;6.80;;;1.60;;
67278;SDS011;54193;53.746;10.058;2023-09-19T15:29:41;5.47;;;1.83;;
67278;SDS011;54193;53.746;10.058;2023-09-19T15:32:27;6.03;;;1.70;;
67278;SDS011;54193;53.746;10.058;2023-09-19T15:35:12;6.63;;;1.42;;
67278;SDS011;54193;53.746;10.058;2023-09-19T15:38:02;4.97;;;1.73;;
67278;SDS011;54193;53.746;10.058;2023-09-19T15:40:49;8.45;;;1.80;;
67278;SDS011;54193;53.746;10.058;2023-09-19T15:43:34;5.30;;;1.88;;
67278;SDS011;54193;53.746;10.058;2023-09-19T15:46:21;4.03;;;1.30;;
67278;SDS011;54193;53.746;10.058;2023-09-19T15:49:06;9.93;;;1.90;;
67278;SDS011;54193;53.746;10.058;2023-09-19T15:51:52;6.13;;;1.45;;
67278;SDS011;54193;53.746;10.058;2023-09-19T15:54:38;6.43;;;1.63;;
67278;SDS011;54193;53.746;10.058;2023-09-19T15:57:28;6.32;;;1.63;;
67278;SDS011;54193;53.746;10.058;2023-09-19T16:00:15;9.57;;;1.30;;
67278;SDS011;54193;53.746;10.058;2023-09-19T16:03:02;6.00;;;1.58;;
67278;SDS011;54193;53.746;10.058;2023-09-19T16:05:48;6.72;;;1.70;;
67278;SDS011;54193;53.746;10.058;2023-09-19T16:08:34;6.00;;;1.67;;
67278;SDS011;54193;53.746;10.058;2023-09-19T16:11:21;6.82;;;1.80;;
67278;SDS011;54193;53.746;10.058;2023-09-19T16:14:07;6.55;;;1.73;;
67278;SDS011;54193;53.746;10.058;2023-09-19T16:16:55;6.70;;;1.83;;
67278;SDS011;54193;53.746;10.058;2023-09-19T16:19:43;5.53;;;1.95;;
67278;SDS011;54193;53.746;10.058;2023-09-19T16:22:29;8.27;;;1.80;;
67278;SDS011;54193;53.746;10.058;2023-09-19T16:25:14;6.47;;;1.90;;
67278;SDS011;54193;53.746;10.058;2023-09-19T16:28:00;9.75;;;2.25;;
67278;SDS011;54193;53.746;10.058;2023-09-19T16:30:46;7.70;;;1.90;;
67278;SDS011;54193;53.746;10.058;2023-09-19T16:33:35;7.07;;;1.73;;
67278;SDS011;54193;53.746;10.058;2023-09-19T16:36:23;8.00;;;1.80;;
67278;SDS011;54193;53.746;10.058;2023-09-19T16:39:08;7.55;;;1.83;;
67278;SDS011;54193;53.746;10.058;2023-09-19T16:41:54;7.03;;;1.88;;
67278;SDS011;54193;53.746;10.058;2023-09-19T16:44:39;5.27;;;1.63;;
67278;SDS011;54193;53.746;10.058;2023-09-19T16:47:25;7.35;;;1.85;;
67278;SDS011;54193;53.746;10.058;2023-09-19T16:50:11;5.28;;;1.83;;
67278;SDS011;54193;53.746;10.058;2023-09-19T16:52:56;5.37;;;1.73;;
67278;SDS011;54193;53.746;10.058;2023-09-19T16:55:43;7.97;;;1.98;;
67278;SDS011;54193;53.746;10.058;2023-09-19T16:58:29;5.80;;;1.90;;